createdAt,value
2018-07-22T00:01:47.305Z,62.20
2018-07-22T00:04:15.428Z,61.90
2018-07-22T00:06:43.497Z,62.00
2018-07-22T00:09:12.970Z,62.20
2018-07-22T00:11:41.428Z,62.10
2018-07-22T00:14:09.576Z,62.00
2018-07-22T00:16:37.858Z,62.10
2018-07-22T00:19:06.061Z,62.00
2018-07-22T00:21:34.905Z,62.10
2018-07-22T00:24:03.047Z,62.30
2018-07-22T00:26:31.119Z,62.30
2018-07-22T00:28:59.298Z,62.60
2018-07-22T00:31:27.373Z,62.80
2018-07-22T00:33:55.511Z,63.50
2018-07-22T00:36:23.674Z,63.70
2018-07-22T00:38:51.732Z,64.10
2018-07-22T00:41:19.800Z,64.20
2018-07-22T00:43:47.869Z,64.80
2018-07-22T00:46:16.209Z,64.90
2018-07-22T00:48:44.381Z,65.30
2018-07-22T00:51:12.476Z,65.80
2018-07-22T00:53:40.610Z,66.20
2018-07-22T00:56:08.674Z,66.60
2018-07-22T00:58:36.929Z,66.80
2018-07-22T01:01:05.172Z,67.50
2018-07-22T01:03:33.238Z,67.70
2018-07-22T01:06:01.455Z,67.80
2018-07-22T01:08:29.502Z,68.10
2018-07-22T01:10:57.682Z,68.70
2018-07-22T01:13:25.737Z,68.90
2018-07-22T01:15:53.833Z,69.10
2018-07-22T01:18:21.984Z,69.10
2018-07-22T01:20:50.072Z,69.60
2018-07-22T01:23:18.117Z,70.00
2018-07-22T01:25:46.164Z,70.20
2018-07-22T01:28:14.253Z,70.80
2018-07-22T01:30:42.330Z,71.00
2018-07-22T01:33:10.417Z,71.60
2018-07-22T01:35:38.475Z,71.80
2018-07-22T01:38:07.030Z,72.30
2018-07-22T01:40:35.103Z,73.10
2018-07-22T01:43:03.218Z,73.20
2018-07-22T01:45:31.261Z,73.80
2018-07-22T01:47:59.325Z,74.20
2018-07-22T01:50:27.396Z,74.60
2018-07-22T01:52:55.445Z,74.90
2018-07-22T01:55:23.518Z,75.60
2018-07-22T01:57:51.560Z,76.10
2018-07-22T02:00:19.653Z,76.70
2018-07-22T02:02:47.729Z,77.00
2018-07-22T02:05:15.806Z,77.20
2018-07-22T02:07:43.881Z,77.50
2018-07-22T02:10:11.983Z,77.90
2018-07-22T02:12:40.081Z,78.10
2018-07-22T02:15:08.132Z,78.30
2018-07-22T02:17:36.285Z,78.60
2018-07-22T02:20:04.500Z,78.60
2018-07-22T02:22:32.577Z,78.60
2018-07-22T02:25:00.620Z,78.80
2018-07-22T02:27:28.673Z,78.90
2018-07-22T02:29:56.765Z,79.00
2018-07-22T02:32:24.813Z,79.10
2018-07-22T02:34:52.868Z,78.90
2018-07-22T02:39:49.684Z,79.10
2018-07-22T02:42:17.733Z,79.20
2018-07-22T02:44:45.816Z,79.30
2018-07-22T02:47:13.865Z,79.40
2018-07-22T02:49:41.982Z,79.40
2018-07-22T02:52:10.078Z,79.60
2018-07-22T02:54:38.143Z,79.70
2018-07-22T02:57:06.956Z,79.90
2018-07-22T02:59:35.025Z,79.90
2018-07-22T03:02:03.160Z,79.70
2018-07-22T03:04:31.216Z,79.70
2018-07-22T03:06:59.258Z,79.30
2018-07-22T03:09:27.312Z,79.10
2018-07-22T03:11:55.340Z,78.80
2018-07-22T03:14:23.391Z,77.80
2018-07-22T03:16:51.421Z,77.50
2018-07-22T03:19:19.482Z,77.60
2018-07-22T03:21:47.531Z,77.80
2018-07-22T03:24:15.574Z,78.00
2018-07-22T03:26:43.641Z,78.00
2018-07-22T03:29:11.712Z,78.00
2018-07-22T03:31:39.741Z,78.10
2018-07-22T03:36:35.983Z,78.60
2018-07-22T03:39:06.208Z,78.50
2018-07-22T03:41:34.272Z,78.60
2018-07-22T03:44:02.335Z,78.60
2018-07-22T03:46:30.410Z,79.00
2018-07-22T03:48:58.460Z,79.30
2018-07-22T03:51:26.524Z,79.70
2018-07-22T03:53:54.560Z,80.20
2018-07-22T03:56:22.609Z,80.60
2018-07-22T03:58:50.764Z,81.00
2018-07-22T04:01:18.804Z,81.40
2018-07-22T04:03:46.829Z,81.70
2018-07-22T04:06:14.880Z,81.90
2018-07-22T04:08:42.937Z,81.90
2018-07-22T04:11:10.975Z,82.50
2018-07-22T04:13:39.008Z,82.40
2018-07-22T04:16:07.063Z,82.20
2018-07-22T04:18:39.386Z,82.30
2018-07-22T04:21:07.412Z,82.40
2018-07-22T04:23:35.453Z,82.80
2018-07-22T04:26:03.552Z,83.20
2018-07-22T04:28:31.596Z,83.40
2018-07-22T04:30:59.629Z,83.70
2018-07-22T04:33:27.683Z,83.80
2018-07-22T04:35:55.733Z,84.10
2018-07-22T04:38:23.797Z,84.30
2018-07-22T04:40:51.830Z,84.50
2018-07-22T04:43:19.877Z,84.80
2018-07-22T04:45:47.909Z,85.10
2018-07-22T04:48:16.088Z,85.10
2018-07-22T04:53:18.740Z,85.40
2018-07-22T04:55:46.789Z,85.10
2018-07-22T04:58:14.824Z,84.90
2018-07-22T05:00:42.889Z,84.80
2018-07-22T05:03:10.952Z,84.70
2018-07-22T05:05:38.981Z,84.80
2018-07-22T05:08:07.048Z,84.90
2018-07-22T05:10:35.090Z,84.40
2018-07-22T05:13:03.153Z,84.10
2018-07-22T05:15:31.210Z,83.80
2018-07-22T05:17:59.238Z,83.50
2018-07-22T05:20:27.329Z,84.10
2018-07-22T05:22:55.429Z,83.10
2018-07-22T05:25:23.472Z,82.90
2018-07-22T05:27:51.516Z,82.50
2018-07-22T05:30:19.588Z,82.20
2018-07-22T05:32:47.646Z,81.80
2018-07-22T05:35:15.717Z,81.60
2018-07-22T05:37:43.761Z,81.50
2018-07-22T05:40:11.816Z,81.60
2018-07-22T05:42:39.865Z,80.00
2018-07-22T05:45:07.909Z,80.00
2018-07-22T05:47:35.968Z,80.60
2018-07-22T05:50:04.441Z,80.00
2018-07-22T05:52:32.505Z,79.20
2018-07-22T05:55:00.579Z,78.40
2018-07-22T05:57:28.715Z,78.10
2018-07-22T05:59:56.783Z,77.60
2018-07-22T06:02:24.849Z,77.10
2018-07-22T06:04:59.329Z,76.50
2018-07-22T06:07:27.418Z,77.30
2018-07-22T06:09:55.440Z,77.50
2018-07-22T06:12:24.489Z,77.00
2018-07-22T06:14:52.568Z,77.10
2018-07-22T06:17:20.813Z,76.50
2018-07-22T06:19:49.100Z,75.90
2018-07-22T06:22:18.226Z,75.60
2018-07-22T06:24:46.359Z,75.20
2018-07-22T06:27:14.401Z,74.30
2018-07-22T06:29:42.465Z,74.00
2018-07-22T06:32:10.637Z,73.20
2018-07-22T06:34:38.729Z,71.90
2018-07-22T06:37:07.032Z,70.90
2018-07-22T06:39:35.101Z,70.00
2018-07-22T06:42:03.177Z,69.20
2018-07-22T06:44:31.884Z,68.40
2018-07-22T06:46:59.960Z,66.70
2018-07-22T06:49:28.305Z,66.40
2018-07-22T06:51:56.412Z,64.50
2018-07-22T06:54:24.575Z,64.30
2018-07-22T06:56:52.606Z,63.90
2018-07-22T06:59:20.665Z,62.70
2018-07-22T07:01:48.786Z,61.60
2018-07-22T07:04:16.913Z,61.80
2018-07-22T07:06:45.030Z,61.40
2018-07-22T07:09:13.161Z,61.30
2018-07-22T07:11:41.257Z,63.10
2018-07-22T07:14:09.908Z,63.30
2018-07-22T07:16:38.182Z,63.90
2018-07-22T07:19:06.370Z,63.70
2018-07-22T07:21:34.406Z,63.80
2018-07-22T07:24:02.472Z,63.80
2018-07-22T07:26:30.519Z,63.10
2018-07-22T07:28:58.561Z,62.60
2018-07-22T07:31:26.637Z,61.50
2018-07-22T07:33:54.689Z,60.40
2018-07-22T07:36:22.747Z,59.30
2018-07-22T07:38:50.816Z,59.20
2018-07-22T07:41:18.857Z,57.50
2018-07-22T07:43:46.948Z,57.20
2018-07-22T07:46:15.061Z,55.40
2018-07-22T07:48:43.101Z,52.70
2018-07-22T07:51:11.160Z,52.60
2018-07-22T07:53:39.197Z,51.00
2018-07-22T07:56:07.470Z,50.00
2018-07-22T07:58:35.553Z,49.10
2018-07-22T08:01:03.629Z,48.70
2018-07-22T08:03:31.729Z,49.10
2018-07-22T08:05:59.833Z,49.70
2018-07-22T08:08:27.880Z,48.80
2018-07-22T08:10:55.929Z,49.40
2018-07-22T08:13:23.948Z,49.20
2018-07-22T08:15:52.120Z,48.90
2018-07-22T08:18:20.154Z,48.70
2018-07-22T08:20:48.221Z,47.30
2018-07-22T08:23:16.281Z,46.60
2018-07-22T08:25:44.364Z,45.70
2018-07-22T08:28:12.420Z,45.00
2018-07-22T08:30:40.449Z,43.70
2018-07-22T08:33:08.500Z,43.20
2018-07-22T08:35:37.163Z,43.00
2018-07-22T08:38:05.213Z,42.70
2018-07-22T08:40:33.781Z,42.70
2018-07-22T08:43:01.817Z,42.90
2018-07-22T08:45:29.980Z,42.70
2018-07-22T08:47:58.037Z,43.00
2018-07-22T08:50:26.085Z,42.80
2018-07-22T08:52:54.137Z,42.40
2018-07-22T08:55:22.180Z,42.70
2018-07-22T08:57:50.245Z,42.00
2018-07-22T09:00:18.291Z,41.90
2018-07-22T09:02:47.465Z,41.10
2018-07-22T09:05:15.529Z,40.70
2018-07-22T09:07:43.577Z,40.40
2018-07-22T09:10:11.648Z,40.60
2018-07-22T09:12:39.972Z,41.20
2018-07-22T09:15:08.026Z,41.50
2018-07-22T09:17:36.140Z,41.10
2018-07-22T09:20:05.260Z,40.70
2018-07-22T09:22:33.285Z,40.50
2018-07-22T09:25:01.363Z,40.30
2018-07-22T09:27:29.413Z,40.10
2018-07-22T09:29:57.444Z,40.00
2018-07-22T09:32:25.529Z,40.00
2018-07-22T09:34:53.586Z,39.60
2018-07-22T09:37:21.656Z,40.30
2018-07-22T09:39:49.732Z,40.80
2018-07-22T09:42:17.748Z,40.60
2018-07-22T09:44:45.856Z,40.40
2018-07-22T09:47:13.908Z,41.30
2018-07-22T09:49:41.996Z,41.90
2018-07-22T09:52:10.055Z,42.10
2018-07-22T09:54:38.093Z,41.70
2018-07-22T09:57:06.121Z,40.50
2018-07-22T09:59:34.160Z,40.20
2018-07-22T10:02:02.202Z,39.70
2018-07-22T10:04:30.292Z,39.20
2018-07-22T10:09:26.718Z,39.90
2018-07-22T10:11:54.804Z,39.70
2018-07-22T10:14:23.815Z,40.20
2018-07-22T10:16:51.783Z,39.70
2018-07-22T10:19:19.816Z,39.60
2018-07-22T10:21:47.997Z,38.40
2018-07-22T10:24:16.041Z,38.10
2018-07-22T10:26:44.064Z,38.00
2018-07-22T10:29:12.105Z,37.80
2018-07-22T10:31:40.157Z,38.20
2018-07-22T10:34:10.076Z,37.60
2018-07-22T10:36:38.156Z,37.70
2018-07-22T10:39:08.546Z,37.90
2018-07-22T10:41:36.755Z,38.00
2018-07-22T10:44:04.927Z,38.30
2018-07-22T10:46:33.010Z,37.80
2018-07-22T10:49:01.086Z,37.30
2018-07-22T10:51:29.105Z,37.40
2018-07-22T10:53:57.134Z,37.00
2018-07-22T10:56:25.189Z,37.00
2018-07-22T10:58:53.221Z,37.00
2018-07-22T11:01:21.280Z,37.30
2018-07-22T11:03:49.357Z,37.30
2018-07-22T11:06:17.412Z,37.40
2018-07-22T11:08:45.457Z,37.20
2018-07-22T11:11:13.513Z,37.80
2018-07-22T11:13:41.540Z,38.20
2018-07-22T11:16:09.580Z,38.20
2018-07-22T11:18:37.645Z,39.20
2018-07-22T11:21:05.726Z,38.10
2018-07-22T11:23:33.780Z,37.80
2018-07-22T11:26:01.832Z,38.30
2018-07-22T11:28:29.873Z,38.10
2018-07-22T11:30:57.936Z,38.50
2018-07-22T11:33:25.993Z,39.00
2018-07-22T11:35:54.067Z,40.00
2018-07-22T11:38:22.120Z,39.10
2018-07-22T11:40:50.175Z,39.40
2018-07-22T11:43:18.200Z,40.60
2018-07-22T11:45:46.264Z,40.60
2018-07-22T11:48:14.324Z,41.50
2018-07-22T11:50:42.509Z,41.20
2018-07-22T11:53:10.896Z,41.40
2018-07-22T11:55:38.977Z,42.60
2018-07-22T11:58:07.176Z,43.00
2018-07-22T12:00:35.222Z,42.10
2018-07-22T12:03:03.280Z,42.80
2018-07-22T12:05:31.308Z,42.20
2018-07-22T12:07:59.368Z,42.70
2018-07-22T12:10:27.413Z,43.80
2018-07-22T12:12:55.461Z,43.30
2018-07-22T12:15:23.520Z,43.90
2018-07-22T12:17:51.565Z,45.20
2018-07-22T12:20:19.615Z,44.60
2018-07-22T12:22:47.652Z,44.20
2018-07-22T12:27:44.069Z,45.20
2018-07-22T12:30:12.129Z,45.40
2018-07-22T12:32:40.314Z,45.60
2018-07-22T12:35:08.383Z,45.60
2018-07-22T12:37:36.416Z,45.40
2018-07-22T12:40:04.502Z,45.60
2018-07-22T12:42:32.544Z,45.90
2018-07-22T12:45:00.645Z,45.60
2018-07-22T12:47:28.704Z,45.90
2018-07-22T12:49:56.741Z,45.40
2018-07-22T12:52:24.804Z,44.50
2018-07-22T12:54:52.854Z,44.50
2018-07-22T12:57:20.896Z,44.40
2018-07-22T12:59:48.969Z,44.40
2018-07-22T13:02:17.019Z,44.50
2018-07-22T13:04:45.071Z,45.00
2018-07-22T13:07:13.109Z,45.40
2018-07-22T13:09:41.166Z,45.90
2018-07-22T13:12:09.207Z,45.90
2018-07-22T13:14:37.264Z,45.90
2018-07-22T13:17:05.349Z,46.00
2018-07-22T13:19:33.389Z,45.90
2018-07-22T13:22:01.421Z,45.90
2018-07-22T13:24:29.476Z,46.00
2018-07-22T13:26:57.509Z,46.20
2018-07-22T13:29:25.560Z,45.70
2018-07-22T13:31:53.602Z,45.50
2018-07-22T13:34:21.657Z,45.30
2018-07-22T13:36:49.728Z,45.40
2018-07-22T13:39:17.763Z,45.80
2018-07-22T13:41:45.880Z,46.00
2018-07-22T13:44:13.926Z,46.00
2018-07-22T13:46:41.984Z,45.90
2018-07-22T13:49:10.044Z,46.00
2018-07-22T13:51:38.089Z,46.10
2018-07-22T13:54:06.186Z,46.10
2018-07-22T13:56:34.226Z,46.40
2018-07-22T13:59:03.336Z,46.50
2018-07-22T14:01:31.396Z,46.10
2018-07-22T14:03:59.429Z,46.20
2018-07-22T14:06:27.489Z,46.60
2018-07-22T14:08:55.560Z,46.10
2018-07-22T14:11:23.668Z,45.70
2018-07-22T14:13:51.721Z,45.70
2018-07-22T14:16:19.756Z,45.80
2018-07-22T14:18:47.835Z,46.00
2018-07-22T14:21:15.892Z,46.10
2018-07-22T14:23:43.921Z,46.00
2018-07-22T14:26:11.969Z,46.30
2018-07-22T14:28:39.996Z,46.30
2018-07-22T14:31:08.148Z,46.20
2018-07-22T14:33:36.172Z,46.30
2018-07-22T14:36:04.249Z,46.60
2018-07-22T14:38:32.316Z,46.40
2018-07-22T14:41:00.568Z,46.40
2018-07-22T14:43:28.377Z,46.20
2018-07-22T14:45:56.429Z,46.30
2018-07-22T14:48:24.477Z,46.60
2018-07-22T14:50:52.496Z,46.40
2018-07-22T14:55:48.612Z,46.60
2018-07-22T14:58:16.640Z,46.70
2018-07-22T15:00:44.708Z,46.80
2018-07-22T15:03:12.743Z,46.70
2018-07-22T15:05:40.810Z,46.90
2018-07-22T15:08:08.840Z,47.10
2018-07-22T15:10:36.877Z,46.80
2018-07-22T15:13:04.932Z,47.50
2018-07-22T15:15:32.984Z,47.00
2018-07-22T15:18:01.029Z,47.00
2018-07-22T15:20:29.120Z,47.00
2018-07-22T15:22:57.168Z,46.80
2018-07-22T15:25:25.360Z,47.10
2018-07-22T15:27:53.433Z,47.30
2018-07-22T15:30:21.465Z,47.60
2018-07-22T15:32:49.512Z,48.00
2018-07-22T15:35:17.579Z,48.00
2018-07-22T15:37:45.800Z,48.00
2018-07-22T15:40:13.945Z,48.00
2018-07-22T15:42:41.968Z,48.50
2018-07-22T15:45:09.754Z,48.60
2018-07-22T15:47:37.793Z,48.60
2018-07-22T15:50:05.971Z,48.40
2018-07-22T15:52:34.032Z,48.30
2018-07-22T15:55:02.109Z,48.50
2018-07-22T15:57:30.133Z,49.10
2018-07-22T15:59:58.174Z,49.50
2018-07-22T16:02:26.247Z,49.80
2018-07-22T16:04:54.304Z,50.40
2018-07-22T16:07:22.608Z,50.40
2018-07-22T16:09:50.642Z,50.50
2018-07-22T16:12:18.668Z,50.50
2018-07-22T16:14:46.739Z,50.50
2018-07-22T16:17:14.776Z,50.40
2018-07-22T16:19:42.812Z,50.60
2018-07-22T16:22:10.940Z,51.20
2018-07-22T16:24:38.973Z,50.80
2018-07-22T16:27:07.045Z,51.00
2018-07-22T16:29:35.087Z,51.00
2018-07-22T16:32:03.163Z,51.10
2018-07-22T16:34:31.202Z,51.40
2018-07-22T16:36:59.237Z,51.30
2018-07-22T16:39:27.294Z,51.10
2018-07-22T16:41:55.328Z,51.10
2018-07-22T16:44:23.364Z,51.00
2018-07-22T16:46:51.422Z,51.30
2018-07-22T16:49:19.453Z,51.10
2018-07-22T16:51:47.529Z,51.40
2018-07-22T16:54:15.552Z,51.30
2018-07-22T16:56:43.633Z,52.00
2018-07-22T16:59:11.691Z,51.20
2018-07-22T17:01:39.745Z,51.30
2018-07-22T17:04:07.776Z,51.30
2018-07-22T17:06:35.833Z,51.60
2018-07-22T17:09:06.264Z,51.50
2018-07-22T17:11:34.341Z,51.50
2018-07-22T17:14:02.405Z,52.40
2018-07-22T17:16:30.432Z,52.00
2018-07-22T17:18:58.526Z,52.20
2018-07-22T17:23:54.541Z,52.40
2018-07-22T17:26:22.580Z,52.50
2018-07-22T17:28:50.629Z,52.40
2018-07-22T17:31:18.785Z,52.70
2018-07-22T17:33:46.881Z,52.90
2018-07-22T17:36:14.937Z,53.10
2018-07-22T17:38:43.046Z,53.20
2018-07-22T17:43:39.016Z,53.30
2018-07-22T17:46:07.068Z,53.30
2018-07-22T17:48:35.128Z,53.30
2018-07-22T17:51:03.221Z,53.60
2018-07-22T17:53:31.224Z,53.60
2018-07-22T17:55:59.277Z,54.30
2018-07-22T17:58:27.306Z,54.00
2018-07-22T18:00:55.380Z,54.00
2018-07-22T18:03:25.502Z,53.80
2018-07-22T18:05:53.544Z,54.00
2018-07-22T18:08:21.975Z,54.40
2018-07-22T18:10:50.973Z,54.40
2018-07-22T18:13:19.009Z,54.70
2018-07-22T18:15:47.059Z,54.90
2018-07-22T18:20:44.699Z,55.30
2018-07-22T18:23:12.736Z,55.00
2018-07-22T18:25:41.364Z,55.50
2018-07-22T18:28:09.394Z,55.60
2018-07-22T18:30:37.441Z,56.40
2018-07-22T18:33:05.577Z,56.00
2018-07-22T18:35:33.737Z,56.10
2018-07-22T18:38:01.825Z,56.30
2018-07-22T18:40:29.968Z,56.50
2018-07-22T18:42:57.996Z,58.00
2018-07-22T18:45:26.037Z,59.10
2018-07-22T18:47:54.572Z,59.80
2018-07-22T18:50:22.724Z,60.40
2018-07-22T18:52:50.744Z,60.70
2018-07-22T18:55:18.803Z,61.30
2018-07-22T18:57:46.871Z,61.00
2018-07-22T19:00:14.961Z,61.40
2018-07-22T19:02:43.121Z,61.40
2018-07-22T19:05:11.177Z,61.20
2018-07-22T19:07:39.238Z,61.40
2018-07-22T19:10:07.770Z,61.50
2018-07-22T19:12:35.800Z,61.80
2018-07-22T19:15:04.295Z,61.80
2018-07-22T19:17:32.333Z,61.80
2018-07-22T19:20:00.375Z,61.90
2018-07-22T19:22:28.521Z,62.10
2018-07-22T19:24:56.568Z,62.20
2018-07-22T19:27:24.730Z,62.30
2018-07-22T19:29:52.785Z,62.30
2018-07-22T19:32:20.867Z,62.30
2018-07-22T19:34:48.993Z,62.10
2018-07-22T19:37:17.072Z,63.10
2018-07-22T19:39:45.549Z,62.10
2018-07-22T19:42:13.680Z,62.50
2018-07-22T19:44:41.792Z,62.60
2018-07-22T19:47:09.863Z,63.00
2018-07-22T19:49:37.909Z,63.50
2018-07-22T19:52:06.220Z,63.40
2018-07-22T19:57:02.236Z,64.00
2018-07-22T19:59:30.344Z,64.10
2018-07-22T20:01:58.400Z,64.40
2018-07-22T20:04:26.464Z,64.40
2018-07-22T20:06:54.587Z,64.10
2018-07-22T20:09:22.622Z,64.80
2018-07-22T20:11:50.697Z,64.30
2018-07-22T20:14:18.842Z,64.90
2018-07-22T20:16:46.884Z,65.20
2018-07-22T20:19:14.925Z,65.10
2018-07-22T20:21:43.001Z,65.30
2018-07-22T20:24:11.114Z,65.30
2018-07-22T20:26:39.133Z,65.60
2018-07-22T20:29:07.183Z,65.60
2018-07-22T20:31:35.251Z,65.50
2018-07-22T20:34:03.309Z,65.60
2018-07-22T20:36:31.465Z,65.50
2018-07-22T20:38:59.530Z,65.90
2018-07-22T20:41:27.548Z,65.90
2018-07-22T20:43:55.655Z,66.00
2018-07-22T20:46:23.700Z,66.80
2018-07-22T20:48:51.812Z,67.20
2018-07-22T20:51:19.956Z,66.30
2018-07-22T20:53:48.013Z,65.90
2018-07-22T20:58:43.944Z,65.90
2018-07-22T21:01:12.010Z,66.00
2018-07-22T21:03:40.092Z,66.10
2018-07-22T21:06:08.236Z,65.90
2018-07-22T21:08:36.417Z,65.90
2018-07-22T21:11:04.542Z,66.10
2018-07-22T21:13:32.600Z,66.30
2018-07-22T21:16:00.693Z,66.70
2018-07-22T21:18:28.781Z,67.00
2018-07-22T21:20:56.917Z,67.50
2018-07-22T21:23:24.924Z,67.70
2018-07-22T21:25:53.002Z,68.00
2018-07-22T21:28:21.036Z,68.40
2018-07-22T21:30:49.077Z,68.90
2018-07-22T21:33:17.168Z,69.20
2018-07-22T21:35:45.204Z,69.70
2018-07-22T21:38:13.336Z,70.20
2018-07-22T21:40:41.381Z,70.70
2018-07-22T21:43:09.416Z,71.20
2018-07-22T21:45:37.484Z,71.50
2018-07-22T21:48:05.552Z,71.60
2018-07-22T21:50:33.696Z,71.50
2018-07-22T21:53:01.889Z,71.90
2018-07-22T21:55:30.017Z,72.20
2018-07-22T21:57:58.063Z,72.80
2018-07-22T22:00:32.005Z,73.10
2018-07-22T22:03:01.572Z,73.80
2018-07-22T22:05:29.753Z,74.30
2018-07-22T22:07:57.845Z,74.50
2018-07-22T22:10:26.445Z,74.70
2018-07-22T22:12:55.136Z,75.10
2018-07-22T22:15:29.241Z,75.30
2018-07-22T22:18:00.503Z,75.40
2018-07-22T22:20:28.953Z,75.30
2018-07-22T22:22:57.244Z,75.30
2018-07-22T22:25:25.360Z,75.60
2018-07-22T22:27:53.608Z,75.90
2018-07-22T22:30:21.716Z,76.20
2018-07-22T22:32:49.748Z,76.70
2018-07-22T22:35:17.806Z,77.40
2018-07-22T22:37:46.212Z,77.30
2018-07-22T22:40:15.124Z,77.40
2018-07-22T22:42:44.500Z,77.50
2018-07-22T22:45:12.803Z,78.40
2018-07-22T22:47:40.853Z,78.10
2018-07-22T22:50:08.889Z,78.20
2018-07-22T22:55:04.864Z,78.90
2018-07-22T22:57:32.924Z,79.20
2018-07-22T23:00:00.985Z,79.60
2018-07-22T23:02:34.044Z,79.80
2018-07-22T23:05:02.110Z,79.90
2018-07-22T23:07:30.164Z,79.90
2018-07-22T23:09:58.220Z,80.10
2018-07-22T23:12:26.273Z,80.40
2018-07-22T23:14:54.324Z,80.70
2018-07-22T23:17:22.351Z,81.20
2018-07-22T23:19:50.508Z,81.40
2018-07-22T23:22:18.567Z,81.60
2018-07-22T23:24:46.604Z,81.90
2018-07-22T23:27:14.672Z,82.00
2018-07-22T23:29:42.740Z,82.20
2018-07-22T23:32:10.803Z,82.50
2018-07-22T23:34:38.855Z,82.70
2018-07-22T23:37:06.904Z,82.70
2018-07-22T23:39:34.984Z,82.90
2018-07-22T23:42:03.025Z,83.10
2018-07-22T23:44:31.070Z,83.40
2018-07-22T23:46:59.144Z,83.30
2018-07-22T23:49:27.192Z,83.50
2018-07-22T23:51:55.213Z,83.70
2018-07-22T23:54:23.278Z,84.00
2018-07-22T23:56:51.348Z,84.30
2018-07-22T23:59:19.420Z,84.90
